Hauptseite
METAR-TAF:

METAR-TAF

Flughäfen :

Flughafen Quimper-Bretagne

Quimper, Frankreich

Breite: 47-58N, Länge: 004-10W, Höhe: 92 m

Beobachtung

Neuester Wetterbericht von vor 17 Minuten, um 19:00 UTC
Wind 3 kt aus unterschiedlichen Richtungen
Temperatur 25°C
Luftfeuchtigkeit 50%
Luftdruck 1016 hPa
Sichtweite 10 km oder mehr
keine Wolken unter 1500 m und keine Kumulonimbus oder Gewitterwolken

METAR: LFRQ 061900Z AUTO VRB03KT CAVOK 25/14 Q1016 NOSIG

Zeit: 21:17 (19:17 UTC)

Prognose

Neuester Wetterbericht von vor 2 Stunden und 17 Minuten, um 17:00 UTC
Gültige Prognose vom 06 um 18 UTC bis 07 um 18 UTC
Wind 3 kt aus unterschiedlichen Richtungen
Sichtweite 10 km oder mehr
keine Wolken unter 1500 m und keine Kumulonimbus oder Gewitterwolken
Übergehend zu
vom 07 um 15 UTC bis 07 um 18 UTC
Wind 13 kt aus Nord/Nordwest

TAF: LFRQ 061700Z 0618/0718 VRB03KT CAVOK BECMG 0715/0718 34013KT

Wetterbeobachtungen und Prognosen von mehr als 4000 Flughäfen (METAR und TAF Bericht).

Die verfügbaren Stationen werden durch gelbe und rote Markierungen auf der Karte dargestellt.

Führen Sie die Maus auf sie, um den Namen der Station zu sehen.

Darauf klicken, um die Beobachtung von Wetterbeobachtungen und Prognosen zu sehen.

Um die Karte zu ändern : klicken Sie auf den grünen Tasten mit einem schwarzen Kreuz Zum Vergrößern, auf den grünen Button mit einem Gedankenstrich zu verkleinern, oder auf die grünen Pfeile für benachbarte Karten.


METAR-TAF: